sensor_id;sensor_type;location;lat;lon;timestamp;P1;durP1;ratioP1;P2;durP2;ratioP2
79708;SDS011;69203;48.964;9.118;2023-04-29T00:00:49;0.70;;;0.20;;
79708;SDS011;69203;48.964;9.118;2023-04-29T00:01:58;1.27;;;0.10;;
79708;SDS011;69203;48.964;9.118;2023-04-29T00:02:59;1.17;;;0.00;;
79708;SDS011;69203;48.964;9.118;2023-04-29T00:04:00;1.95;;;0.10;;
79708;SDS011;69203;48.964;9.118;2023-04-29T00:05:03;2.08;;;0.10;;
79708;SDS011;69203;48.964;9.118;2023-04-29T00:06:04;1.77;;;0.00;;
79708;SDS011;69203;48.964;9.118;2023-04-29T00:07:04;1.73;;;0.10;;
79708;SDS011;69203;48.964;9.118;2023-04-29T00:08:14;2.35;;;0.10;;
79708;SDS011;69203;48.964;9.118;2023-04-29T00:09:14;2.40;;;0.10;;
79708;SDS011;69203;48.964;9.118;2023-04-29T00:10:15;2.40;;;0.03;;
79708;SDS011;69203;48.964;9.118;2023-04-29T00:11:15;2.20;;;0.07;;
79708;SDS011;69203;48.964;9.118;2023-04-29T00:12:15;2.30;;;0.10;;
79708;SDS011;69203;48.964;9.118;2023-04-29T00:13:16;1.53;;;0.10;;
79708;SDS011;69203;48.964;9.118;2023-04-29T00:14:17;1.13;;;0.00;;
79708;SDS011;69203;48.964;9.118;2023-04-29T00:15:18;1.40;;;0.07;;
79708;SDS011;69203;48.964;9.118;2023-04-29T00:16:18;1.53;;;0.10;;
79708;SDS011;69203;48.964;9.118;2023-04-29T00:17:21;1.55;;;0.10;;
79708;SDS011;69203;48.964;9.118;2023-04-29T00:18:22;1.17;;;0.00;;
79708;SDS011;69203;48.964;9.118;2023-04-29T00:19:22;1.60;;;0.10;;
79708;SDS011;69203;48.964;9.118;2023-04-29T00:20:23;1.70;;;0.10;;
79708;SDS011;69203;48.964;9.118;2023-04-29T00:21:23;1.43;;;0.10;;
79708;SDS011;69203;48.964;9.118;2023-04-29T00:22:24;1.20;;;0.03;;
79708;SDS011;69203;48.964;9.118;2023-04-29T00:23:24;1.50;;;0.10;;
79708;SDS011;69203;48.964;9.118;2023-04-29T00:24:25;1.60;;;0.07;;
79708;SDS011;69203;48.964;9.118;2023-04-29T00:25:26;1.30;;;0.10;;
79708;SDS011;69203;48.964;9.118;2023-04-29T00:26:26;0.73;;;0.00;;
79708;SDS011;69203;48.964;9.118;2023-04-29T00:27:27;1.27;;;0.10;;
79708;SDS011;69203;48.964;9.118;2023-04-29T00:28:27;1.67;;;0.10;;
79708;SDS011;69203;48.964;9.118;2023-04-29T00:29:28;0.97;;;0.00;;
79708;SDS011;69203;48.964;9.118;2023-04-29T00:30:28;1.23;;;0.00;;
79708;SDS011;69203;48.964;9.118;2023-04-29T00:31:37;0.70;;;0.00;;
79708;SDS011;69203;48.964;9.118;2023-04-29T00:32:38;1.30;;;0.10;;
79708;SDS011;69203;48.964;9.118;2023-04-29T00:33:38;0.57;;;0.00;;
79708;SDS011;69203;48.964;9.118;2023-04-29T00:34:39;0.85;;;0.05;;
79708;SDS011;69203;48.964;9.118;2023-04-29T00:35:40;1.03;;;0.03;;
79708;SDS011;69203;48.964;9.118;2023-04-29T00:36:40;0.93;;;0.03;;
79708;SDS011;69203;48.964;9.118;2023-04-29T00:37:43;0.95;;;0.00;;
79708;SDS011;69203;48.964;9.118;2023-04-29T00:38:44;0.87;;;0.10;;
79708;SDS011;69203;48.964;9.118;2023-04-29T00:39:44;0.93;;;0.10;;
79708;SDS011;69203;48.964;9.118;2023-04-29T00:40:44;0.93;;;0.10;;
79708;SDS011;69203;48.964;9.118;2023-04-29T00:41:45;1.05;;;0.10;;
79708;SDS011;69203;48.964;9.118;2023-04-29T00:42:46;1.60;;;0.10;;
79708;SDS011;69203;48.964;9.118;2023-04-29T00:43:53;1.48;;;0.10;;
79708;SDS011;69203;48.964;9.118;2023-04-29T00:44:54;1.60;;;0.03;;
79708;SDS011;69203;48.964;9.118;2023-04-29T00:45:54;1.60;;;0.10;;
79708;SDS011;69203;48.964;9.118;2023-04-29T00:46:56;1.80;;;0.10;;
79708;SDS011;69203;48.964;9.118;2023-04-29T00:47:58;1.70;;;0.10;;
79708;SDS011;69203;48.964;9.118;2023-04-29T00:48:58;1.87;;;0.10;;
79708;SDS011;69203;48.964;9.118;2023-04-29T00:49:59;1.95;;;0.10;;
79708;SDS011;69203;48.964;9.118;2023-04-29T00:51:00;1.80;;;0.10;;
79708;SDS011;69203;48.964;9.118;2023-04-29T00:52:01;1.75;;;0.10;;
79708;SDS011;69203;48.964;9.118;2023-04-29T00:53:02;1.60;;;0.10;;
79708;SDS011;69203;48.964;9.118;2023-04-29T00:54:05;1.70;;;0.10;;
79708;SDS011;69203;48.964;9.118;2023-04-29T00:55:08;1.95;;;0.10;;
79708;SDS011;69203;48.964;9.118;2023-04-29T00:56:11;2.45;;;0.10;;
79708;SDS011;69203;48.964;9.118;2023-04-29T00:57:13;2.97;;;0.10;;
79708;SDS011;69203;48.964;9.118;2023-04-29T00:58:15;3.10;;;0.05;;
79708;SDS011;69203;48.964;9.118;2023-04-29T00:59:17;3.10;;;0.10;;
79708;SDS011;69203;48.964;9.118;2023-04-29T01:00:17;3.13;;;0.10;;
79708;SDS011;69203;48.964;9.118;2023-04-29T01:01:18;2.73;;;0.10;;
79708;SDS011;69203;48.964;9.118;2023-04-29T01:02:22;2.35;;;0.00;;
79708;SDS011;69203;48.964;9.118;2023-04-29T01:03:31;2.35;;;0.10;;
79708;SDS011;69203;48.964;9.118;2023-04-29T01:04:32;2.20;;;0.10;;
79708;SDS011;69203;48.964;9.118;2023-04-29T01:05:32;2.40;;;0.07;;
79708;SDS011;69203;48.964;9.118;2023-04-29T01:07:55;2.03;;;0.10;;
79708;SDS011;69203;48.964;9.118;2023-04-29T01:14:30;2.58;;;0.10;;
79708;SDS011;69203;48.964;9.118;2023-04-29T01:15:48;2.53;;;0.10;;
79708;SDS011;69203;48.964;9.118;2023-04-29T01:17:05;2.38;;;0.10;;
79708;SDS011;69203;48.964;9.118;2023-04-29T01:20:39;2.38;;;0.10;;
79708;SDS011;69203;48.964;9.118;2023-04-29T01:21:47;2.35;;;0.10;;
79708;SDS011;69203;48.964;9.118;2023-04-29T01:22:48;2.45;;;0.10;;
79708;SDS011;69203;48.964;9.118;2023-04-29T01:23:48;2.30;;;0.10;;
79708;SDS011;69203;48.964;9.118;2023-04-29T01:24:57;1.65;;;0.10;;
79708;SDS011;69203;48.964;9.118;2023-04-29T01:25:57;1.05;;;0.08;;
79708;SDS011;69203;48.964;9.118;2023-04-29T01:31:14;1.40;;;0.10;;
79708;SDS011;69203;48.964;9.118;2023-04-29T01:32:04;1.08;;;0.00;;
79708;SDS011;69203;48.964;9.118;2023-04-29T01:35:50;1.55;;;0.08;;
79708;SDS011;69203;48.964;9.118;2023-04-29T01:39:38;1.65;;;0.10;;
79708;SDS011;69203;48.964;9.118;2023-04-29T01:42:23;1.98;;;0.10;;
79708;SDS011;69203;48.964;9.118;2023-04-29T01:43:29;1.75;;;0.10;;
79708;SDS011;69203;48.964;9.118;2023-04-29T01:44:31;0.93;;;0.03;;
79708;SDS011;69203;48.964;9.118;2023-04-29T01:45:34;1.25;;;0.10;;
79708;SDS011;69203;48.964;9.118;2023-04-29T01:46:44;1.45;;;0.10;;
79708;SDS011;69203;48.964;9.118;2023-04-29T01:47:53;1.50;;;0.00;;
79708;SDS011;69203;48.964;9.118;2023-04-29T01:48:57;1.40;;;0.10;;
79708;SDS011;69203;48.964;9.118;2023-04-29T01:49:58;1.47;;;0.03;;
79708;SDS011;69203;48.964;9.118;2023-04-29T01:50:58;1.30;;;0.10;;
79708;SDS011;69203;48.964;9.118;2023-04-29T01:51:58;1.13;;;0.03;;
79708;SDS011;69203;48.964;9.118;2023-04-29T01:52:59;1.23;;;0.07;;
79708;SDS011;69203;48.964;9.118;2023-04-29T01:53:59;2.00;;;0.10;;
79708;SDS011;69203;48.964;9.118;2023-04-29T01:55:00;2.10;;;0.10;;
79708;SDS011;69203;48.964;9.118;2023-04-29T01:56:01;2.03;;;0.10;;
79708;SDS011;69203;48.964;9.118;2023-04-29T01:57:02;1.65;;;0.10;;
79708;SDS011;69203;48.964;9.118;2023-04-29T01:58:02;1.20;;;0.10;;
79708;SDS011;69203;48.964;9.118;2023-04-29T01:59:03;1.20;;;0.10;;
79708;SDS011;69203;48.964;9.118;2023-04-29T02:00:05;1.13;;;0.20;;
79708;SDS011;69203;48.964;9.118;2023-04-29T02:01:09;1.13;;;0.10;;
79708;SDS011;69203;48.964;9.118;2023-04-29T02:02:10;1.58;;;0.05;;
79708;SDS011;69203;48.964;9.118;2023-04-29T02:03:11;0.93;;;0.10;;
79708;SDS011;69203;48.964;9.118;2023-04-29T02:04:12;1.40;;;0.08;;
79708;SDS011;69203;48.964;9.118;2023-04-29T02:05:12;1.10;;;0.00;;
79708;SDS011;69203;48.964;9.118;2023-04-29T02:06:12;0.87;;;0.07;;
79708;SDS011;69203;48.964;9.118;2023-04-29T02:07:13;0.57;;;0.03;;
79708;SDS011;69203;48.964;9.118;2023-04-29T02:08:13;0.50;;;0.00;;
79708;SDS011;69203;48.964;9.118;2023-04-29T02:09:17;0.93;;;0.00;;
79708;SDS011;69203;48.964;9.118;2023-04-29T02:10:20;0.75;;;0.10;;
79708;SDS011;69203;48.964;9.118;2023-04-29T02:11:21;0.83;;;0.00;;
79708;SDS011;69203;48.964;9.118;2023-04-29T02:12:21;0.97;;;0.00;;
79708;SDS011;69203;48.964;9.118;2023-04-29T02:13:23;1.25;;;0.10;;
79708;SDS011;69203;48.964;9.118;2023-04-29T02:14:23;1.23;;;0.10;;
79708;SDS011;69203;48.964;9.118;2023-04-29T02:15:26;1.70;;;0.10;;
79708;SDS011;69203;48.964;9.118;2023-04-29T02:16:28;1.40;;;0.10;;
79708;SDS011;69203;48.964;9.118;2023-04-29T02:17:28;1.50;;;0.00;;
79708;SDS011;69203;48.964;9.118;2023-04-29T02:18:29;1.40;;;0.10;;
79708;SDS011;69203;48.964;9.118;2023-04-29T02:19:29;1.60;;;0.03;;
79708;SDS011;69203;48.964;9.118;2023-04-29T02:20:30;1.33;;;0.10;;
79708;SDS011;69203;48.964;9.118;2023-04-29T02:21:40;1.65;;;0.00;;
79708;SDS011;69203;48.964;9.118;2023-04-29T02:22:41;2.15;;;0.10;;
79708;SDS011;69203;48.964;9.118;2023-04-29T02:23:44;1.95;;;0.10;;
79708;SDS011;69203;48.964;9.118;2023-04-29T02:24:47;1.65;;;0.08;;
79708;SDS011;69203;48.964;9.118;2023-04-29T02:26:00;1.55;;;0.08;;
79708;SDS011;69203;48.964;9.118;2023-04-29T02:27:13;1.30;;;0.08;;
79708;SDS011;69203;48.964;9.118;2023-04-29T02:28:28;1.38;;;0.10;;
79708;SDS011;69203;48.964;9.118;2023-04-29T02:29:39;1.55;;;0.08;;
79708;SDS011;69203;48.964;9.118;2023-04-29T02:30:39;1.50;;;0.03;;
79708;SDS011;69203;48.964;9.118;2023-04-29T02:31:42;1.25;;;0.00;;
79708;SDS011;69203;48.964;9.118;2023-04-29T02:32:49;1.27;;;0.10;;
79708;SDS011;69203;48.964;9.118;2023-04-29T02:33:50;0.93;;;0.00;;
79708;SDS011;69203;48.964;9.118;2023-04-29T02:34:50;1.30;;;0.10;;
79708;SDS011;69203;48.964;9.118;2023-04-29T02:35:51;1.50;;;0.08;;
79708;SDS011;69203;48.964;9.118;2023-04-29T02:36:52;1.60;;;0.10;;
79708;SDS011;69203;48.964;9.118;2023-04-29T02:37:52;1.50;;;0.10;;
79708;SDS011;69203;48.964;9.118;2023-04-29T02:38:52;1.50;;;0.00;;
79708;SDS011;69203;48.964;9.118;2023-04-29T02:39:54;1.38;;;0.10;;
79708;SDS011;69203;48.964;9.118;2023-04-29T02:40:55;1.30;;;0.10;;
79708;SDS011;69203;48.964;9.118;2023-04-29T02:41:56;1.55;;;0.10;;
79708;SDS011;69203;48.964;9.118;2023-04-29T02:42:57;1.57;;;0.10;;
79708;SDS011;69203;48.964;9.118;2023-04-29T02:43:57;1.53;;;0.10;;
79708;SDS011;69203;48.964;9.118;2023-04-29T02:45:00;1.40;;;0.00;;
79708;SDS011;69203;48.964;9.118;2023-04-29T02:46:00;1.40;;;0.10;;
79708;SDS011;69203;48.964;9.118;2023-04-29T02:47:01;1.30;;;0.10;;
79708;SDS011;69203;48.964;9.118;2023-04-29T02:48:01;1.40;;;0.10;;
79708;SDS011;69203;48.964;9.118;2023-04-29T02:49:02;1.07;;;0.10;;
79708;SDS011;69203;48.964;9.118;2023-04-29T02:50:05;1.55;;;0.00;;
79708;SDS011;69203;48.964;9.118;2023-04-29T02:51:05;1.13;;;0.10;;
79708;SDS011;69203;48.964;9.118;2023-04-29T02:52:06;1.17;;;0.07;;
79708;SDS011;69203;48.964;9.118;2023-04-29T02:53:06;1.20;;;0.03;;
79708;SDS011;69203;48.964;9.118;2023-04-29T02:54:07;1.10;;;0.10;;
79708;SDS011;69203;48.964;9.118;2023-04-29T02:55:07;0.93;;;0.10;;
79708;SDS011;69203;48.964;9.118;2023-04-29T02:56:08;0.63;;;0.00;;
79708;SDS011;69203;48.964;9.118;2023-04-29T02:57:08;1.10;;;0.10;;
79708;SDS011;69203;48.964;9.118;2023-04-29T02:58:09;1.23;;;0.10;;
79708;SDS011;69203;48.964;9.118;2023-04-29T02:59:09;0.87;;;0.10;;
79708;SDS011;69203;48.964;9.118;2023-04-29T03:00:10;0.93;;;0.00;;
79708;SDS011;69203;48.964;9.118;2023-04-29T03:01:10;1.03;;;0.07;;
79708;SDS011;69203;48.964;9.118;2023-04-29T03:02:13;1.25;;;0.10;;
79708;SDS011;69203;48.964;9.118;2023-04-29T03:03:13;1.05;;;0.10;;
79708;SDS011;69203;48.964;9.118;2023-04-29T03:04:14;1.07;;;0.10;;
79708;SDS011;69203;48.964;9.118;2023-04-29T03:05:15;1.03;;;0.00;;
79708;SDS011;69203;48.964;9.118;2023-04-29T03:06:15;1.47;;;0.10;;
79708;SDS011;69203;48.964;9.118;2023-04-29T03:07:15;1.20;;;0.07;;
79708;SDS011;69203;48.964;9.118;2023-04-29T03:08:16;1.17;;;0.10;;
79708;SDS011;69203;48.964;9.118;2023-04-29T03:09:16;1.30;;;0.13;;
79708;SDS011;69203;48.964;9.118;2023-04-29T03:10:18;1.13;;;0.10;;
79708;SDS011;69203;48.964;9.118;2023-04-29T03:11:20;1.63;;;0.10;;
79708;SDS011;69203;48.964;9.118;2023-04-29T03:12:23;1.83;;;0.10;;
79708;SDS011;69203;48.964;9.118;2023-04-29T03:13:24;1.70;;;0.07;;
79708;SDS011;69203;48.964;9.118;2023-04-29T03:14:31;1.48;;;0.10;;
79708;SDS011;69203;48.964;9.118;2023-04-29T03:15:32;1.60;;;0.10;;
79708;SDS011;69203;48.964;9.118;2023-04-29T03:16:32;1.53;;;0.10;;
79708;SDS011;69203;48.964;9.118;2023-04-29T03:17:33;1.30;;;0.05;;
79708;SDS011;69203;48.964;9.118;2023-04-29T03:18:34;1.30;;;0.10;;
79708;SDS011;69203;48.964;9.118;2023-04-29T03:19:34;1.33;;;0.07;;
79708;SDS011;69203;48.964;9.118;2023-04-29T03:20:35;1.23;;;0.10;;
79708;SDS011;69203;48.964;9.118;2023-04-29T03:21:35;1.25;;;0.08;;
79708;SDS011;69203;48.964;9.118;2023-04-29T03:22:36;1.13;;;0.10;;
79708;SDS011;69203;48.964;9.118;2023-04-29T03:23:36;1.23;;;0.10;;
79708;SDS011;69203;48.964;9.118;2023-04-29T03:24:39;1.20;;;0.08;;
79708;SDS011;69203;48.964;9.118;2023-04-29T03:25:39;0.93;;;0.10;;
79708;SDS011;69203;48.964;9.118;2023-04-29T03:26:42;0.25;;;0.15;;
79708;SDS011;69203;48.964;9.118;2023-04-29T03:27:46;0.20;;;0.10;;
79708;SDS011;69203;48.964;9.118;2023-04-29T03:28:48;0.40;;;0.00;;
79708;SDS011;69203;48.964;9.118;2023-04-29T03:29:51;0.52;;;0.00;;
79708;SDS011;69203;48.964;9.118;2023-04-29T03:30:54;0.30;;;0.00;;
79708;SDS011;69203;48.964;9.118;2023-04-29T03:31:58;0.40;;;0.10;;
79708;SDS011;69203;48.964;9.118;2023-04-29T03:33:02;0.38;;;0.00;;
79708;SDS011;69203;48.964;9.118;2023-04-29T03:34:04;0.32;;;0.00;;
79708;SDS011;69203;48.964;9.118;2023-04-29T03:35:07;2.08;;;1.75;;
79708;SDS011;69203;48.964;9.118;2023-04-29T03:36:10;0.32;;;0.00;;
79708;SDS011;69203;48.964;9.118;2023-04-29T03:37:20;0.43;;;0.00;;
79708;SDS011;69203;48.964;9.118;2023-04-29T03:38:20;0.30;;;0.00;;
79708;SDS011;69203;48.964;9.118;2023-04-29T03:39:21;0.37;;;0.00;;
79708;SDS011;69203;48.964;9.118;2023-04-29T03:40:31;0.43;;;0.00;;
79708;SDS011;69203;48.964;9.118;2023-04-29T03:41:34;0.75;;;0.10;;
79708;SDS011;69203;48.964;9.118;2023-04-29T03:42:34;1.00;;;0.00;;
79708;SDS011;69203;48.964;9.118;2023-04-29T03:43:37;0.93;;;0.00;;
79708;SDS011;69203;48.964;9.118;2023-04-29T03:44:38;0.87;;;0.00;;
79708;SDS011;69203;48.964;9.118;2023-04-29T03:45:39;1.03;;;0.10;;
79708;SDS011;69203;48.964;9.118;2023-04-29T03:46:42;1.10;;;0.10;;
79708;SDS011;69203;48.964;9.118;2023-04-29T03:47:42;0.93;;;0.00;;
79708;SDS011;69203;48.964;9.118;2023-04-29T03:48:43;0.97;;;0.10;;
79708;SDS011;69203;48.964;9.118;2023-04-29T03:49:43;1.10;;;0.07;;
79708;SDS011;69203;48.964;9.118;2023-04-29T03:50:44;1.00;;;0.10;;
79708;SDS011;69203;48.964;9.118;2023-04-29T03:51:45;1.37;;;0.10;;
79708;SDS011;69203;48.964;9.118;2023-04-29T03:52:46;1.40;;;0.10;;
79708;SDS011;69203;48.964;9.118;2023-04-29T03:53:46;1.23;;;0.10;;
79708;SDS011;69203;48.964;9.118;2023-04-29T03:54:47;1.07;;;0.10;;
79708;SDS011;69203;48.964;9.118;2023-04-29T03:55:55;1.45;;;0.10;;
79708;SDS011;69203;48.964;9.118;2023-04-29T03:56:58;1.02;;;0.05;;
79708;SDS011;69203;48.964;9.118;2023-04-29T03:57:59;0.43;;;0.00;;
79708;SDS011;69203;48.964;9.118;2023-04-29T03:58:59;0.57;;;0.00;;
79708;SDS011;69203;48.964;9.118;2023-04-29T04:00:00;0.97;;;0.07;;
79708;SDS011;69203;48.964;9.118;2023-04-29T04:01:00;1.07;;;0.03;;
79708;SDS011;69203;48.964;9.118;2023-04-29T04:02:00;1.20;;;0.10;;
79708;SDS011;69203;48.964;9.118;2023-04-29T04:03:10;1.10;;;0.03;;
79708;SDS011;69203;48.964;9.118;2023-04-29T04:04:10;1.10;;;0.10;;
79708;SDS011;69203;48.964;9.118;2023-04-29T04:05:10;0.93;;;0.10;;
79708;SDS011;69203;48.964;9.118;2023-04-29T04:06:11;0.83;;;0.00;;
79708;SDS011;69203;48.964;9.118;2023-04-29T04:07:12;0.93;;;0.00;;
79708;SDS011;69203;48.964;9.118;2023-04-29T04:08:15;0.75;;;0.00;;
79708;SDS011;69203;48.964;9.118;2023-04-29T04:09:19;0.63;;;0.00;;
79708;SDS011;69203;48.964;9.118;2023-04-29T04:10:19;0.52;;;0.03;;
79708;SDS011;69203;48.964;9.118;2023-04-29T04:11:19;0.53;;;0.10;;
79708;SDS011;69203;48.964;9.118;2023-04-29T04:12:20;0.53;;;0.00;;
79708;SDS011;69203;48.964;9.118;2023-04-29T04:13:20;0.60;;;0.00;;
79708;SDS011;69203;48.964;9.118;2023-04-29T04:14:23;0.30;;;0.00;;
79708;SDS011;69203;48.964;9.118;2023-04-29T04:15:23;0.20;;;0.00;;
79708;SDS011;69203;48.964;9.118;2023-04-29T04:16:24;0.00;;;0.00;;
79708;SDS011;69203;48.964;9.118;2023-04-29T04:17:24;0.20;;;0.00;;
79708;SDS011;69203;48.964;9.118;2023-04-29T04:18:24;0.55;;;0.10;;
79708;SDS011;69203;48.964;9.118;2023-04-29T04:19:25;0.93;;;0.10;;
79708;SDS011;69203;48.964;9.118;2023-04-29T04:20:26;0.10;;;0.00;;
79708;SDS011;69203;48.964;9.118;2023-04-29T04:21:26;0.90;;;0.10;;
79708;SDS011;69203;48.964;9.118;2023-04-29T04:22:26;0.00;;;0.00;;
79708;SDS011;69203;48.964;9.118;2023-04-29T04:23:27;0.10;;;0.00;;
79708;SDS011;69203;48.964;9.118;2023-04-29T04:24:28;0.03;;;0.03;;
79708;SDS011;69203;48.964;9.118;2023-04-29T04:25:28;0.10;;;0.10;;
79708;SDS011;69203;48.964;9.118;2023-04-29T04:26:29;0.10;;;0.03;;
79708;SDS011;69203;48.964;9.118;2023-04-29T04:27:29;0.27;;;0.10;;
79708;SDS011;69203;48.964;9.118;2023-04-29T04:28:29;0.00;;;0.00;;
79708;SDS011;69203;48.964;9.118;2023-04-29T04:29:30;0.20;;;0.10;;
79708;SDS011;69203;48.964;9.118;2023-04-29T04:30:30;0.07;;;0.07;;
79708;SDS011;69203;48.964;9.118;2023-04-29T04:31:31;0.17;;;0.17;;
79708;SDS011;69203;48.964;9.118;2023-04-29T04:32:31;1.00;;;0.93;;
79708;SDS011;69203;48.964;9.118;2023-04-29T04:33:32;0.00;;;0.00;;
79708;SDS011;69203;48.964;9.118;2023-04-29T04:34:33;3.07;;;2.87;;
79708;SDS011;69203;48.964;9.118;2023-04-29T04:35:33;0.00;;;0.00;;
79708;SDS011;69203;48.964;9.118;2023-04-29T04:36:34;0.10;;;0.10;;
79708;SDS011;69203;48.964;9.118;2023-04-29T04:37:34;0.10;;;0.00;;
79708;SDS011;69203;48.964;9.118;2023-04-29T04:38:35;0.00;;;0.00;;
79708;SDS011;69203;48.964;9.118;2023-04-29T04:40:18;0.00;;;0.00;;
79708;SDS011;69203;48.964;9.118;2023-04-29T04:41:20;0.00;;;0.00;;
79708;SDS011;69203;48.964;9.118;2023-04-29T04:42:30;0.20;;;0.10;;
79708;SDS011;69203;48.964;9.118;2023-04-29T04:43:40;0.20;;;0.10;;
79708;SDS011;69203;48.964;9.118;2023-04-29T04:44:45;0.03;;;0.00;;
79708;SDS011;69203;48.964;9.118;2023-04-29T04:45:48;0.10;;;0.10;;
79708;SDS011;69203;48.964;9.118;2023-04-29T04:46:59;0.10;;;0.08;;
79708;SDS011;69203;48.964;9.118;2023-04-29T04:48:12;0.10;;;0.03;;
79708;SDS011;69203;48.964;9.118;2023-04-29T04:49:13;0.03;;;0.03;;
79708;SDS011;69203;48.964;9.118;2023-04-29T04:50:16;0.08;;;0.03;;
79708;SDS011;69203;48.964;9.118;2023-04-29T04:51:16;0.10;;;0.10;;
79708;SDS011;69203;48.964;9.118;2023-04-29T04:52:20;0.10;;;0.07;;
79708;SDS011;69203;48.964;9.118;2023-04-29T04:53:21;0.00;;;0.00;;
79708;SDS011;69203;48.964;9.118;2023-04-29T04:54:21;0.03;;;0.03;;
79708;SDS011;69203;48.964;9.118;2023-04-29T04:55:22;0.00;;;0.00;;
79708;SDS011;69203;48.964;9.118;2023-04-29T04:56:22;0.10;;;0.10;;
79708;SDS011;69203;48.964;9.118;2023-04-29T04:57:23;0.00;;;0.00;;
79708;SDS011;69203;48.964;9.118;2023-04-29T04:58:23;2.37;;;2.27;;
79708;SDS011;69203;48.964;9.118;2023-04-29T04:59:25;0.00;;;0.00;;
79708;SDS011;69203;48.964;9.118;2023-04-29T05:00:25;0.00;;;0.00;;
79708;SDS011;69203;48.964;9.118;2023-04-29T05:01:26;0.00;;;0.00;;
79708;SDS011;69203;48.964;9.118;2023-04-29T05:02:37;0.00;;;0.00;;
79708;SDS011;69203;48.964;9.118;2023-04-29T05:03:37;0.10;;;0.10;;
79708;SDS011;69203;48.964;9.118;2023-04-29T05:04:40;0.00;;;0.00;;
79708;SDS011;69203;48.964;9.118;2023-04-29T05:05:41;0.00;;;0.00;;
79708;SDS011;69203;48.964;9.118;2023-04-29T05:06:44;0.20;;;0.13;;
79708;SDS011;69203;48.964;9.118;2023-04-29T05:07:45;0.00;;;0.00;;
79708;SDS011;69203;48.964;9.118;2023-04-29T05:08:46;0.10;;;0.10;;
79708;SDS011;69203;48.964;9.118;2023-04-29T05:09:46;0.00;;;0.00;;
79708;SDS011;69203;48.964;9.118;2023-04-29T05:10:47;0.00;;;0.00;;
79708;SDS011;69203;48.964;9.118;2023-04-29T05:11:47;0.00;;;0.00;;
79708;SDS011;69203;48.964;9.118;2023-04-29T05:13:05;0.75;;;0.57;;
79708;SDS011;69203;48.964;9.118;2023-04-29T05:14:13;0.20;;;0.20;;
79708;SDS011;69203;48.964;9.118;2023-04-29T05:15:23;0.13;;;0.13;;
79708;SDS011;69203;48.964;9.118;2023-04-29T05:16:30;0.00;;;0.00;;
79708;SDS011;69203;48.964;9.118;2023-04-29T05:17:43;0.00;;;0.00;;
79708;SDS011;69203;48.964;9.118;2023-04-29T05:18:54;0.05;;;0.05;;
79708;SDS011;69203;48.964;9.118;2023-04-29T05:19:54;0.00;;;0.00;;
79708;SDS011;69203;48.964;9.118;2023-04-29T05:20:55;0.00;;;0.00;;
79708;SDS011;69203;48.964;9.118;2023-04-29T05:22:02;0.00;;;0.00;;
79708;SDS011;69203;48.964;9.118;2023-04-29T05:23:03;0.10;;;0.10;;
79708;SDS011;69203;48.964;9.118;2023-04-29T05:24:06;0.10;;;0.10;;
79708;SDS011;69203;48.964;9.118;2023-04-29T05:25:21;0.08;;;0.08;;
79708;SDS011;69203;48.964;9.118;2023-04-29T05:26:24;0.00;;;0.00;;
79708;SDS011;69203;48.964;9.118;2023-04-29T05:27:25;0.10;;;0.00;;
79708;SDS011;69203;48.964;9.118;2023-04-29T05:28:37;0.10;;;0.10;;
79708;SDS011;69203;48.964;9.118;2023-04-29T05:29:40;0.10;;;0.10;;
79708;SDS011;69203;48.964;9.118;2023-04-29T05:30:53;0.13;;;0.10;;
79708;SDS011;69203;48.964;9.118;2023-04-29T05:32:04;0.10;;;0.03;;
79708;SDS011;69203;48.964;9.118;2023-04-29T05:33:15;0.20;;;0.00;;
79708;SDS011;69203;48.964;9.118;2023-04-29T05:34:15;1.07;;;0.00;;
79708;SDS011;69203;48.964;9.118;2023-04-29T05:35:18;1.17;;;0.08;;
79708;SDS011;69203;48.964;9.118;2023-04-29T05:36:23;0.80;;;0.00;;
79708;SDS011;69203;48.964;9.118;2023-04-29T05:37:33;0.85;;;0.00;;
79708;SDS011;69203;48.964;9.118;2023-04-29T05:38:34;0.57;;;0.30;;
79708;SDS011;69203;48.964;9.118;2023-04-29T05:39:37;0.03;;;0.03;;
79708;SDS011;69203;48.964;9.118;2023-04-29T05:40:37;0.03;;;0.03;;
79708;SDS011;69203;48.964;9.118;2023-04-29T05:41:40;0.13;;;0.10;;
79708;SDS011;69203;48.964;9.118;2023-04-29T05:42:40;0.00;;;0.00;;
79708;SDS011;69203;48.964;9.118;2023-04-29T05:43:42;0.10;;;0.10;;
79708;SDS011;69203;48.964;9.118;2023-04-29T05:44:45;0.10;;;0.10;;
79708;SDS011;69203;48.964;9.118;2023-04-29T05:45:46;0.00;;;0.00;;
79708;SDS011;69203;48.964;9.118;2023-04-29T05:46:46;0.07;;;0.07;;
79708;SDS011;69203;48.964;9.118;2023-04-29T05:47:47;0.00;;;0.00;;
79708;SDS011;69203;48.964;9.118;2023-04-29T05:48:48;0.20;;;0.10;;
79708;SDS011;69203;48.964;9.118;2023-04-29T05:49:55;0.10;;;0.10;;
79708;SDS011;69203;48.964;9.118;2023-04-29T05:50:56;0.10;;;0.10;;
79708;SDS011;69203;48.964;9.118;2023-04-29T05:51:59;0.05;;;0.05;;
79708;SDS011;69203;48.964;9.118;2023-04-29T05:53:13;0.10;;;0.10;;
79708;SDS011;69203;48.964;9.118;2023-04-29T05:54:13;0.00;;;0.00;;
79708;SDS011;69203;48.964;9.118;2023-04-29T05:55:16;0.10;;;0.10;;
79708;SDS011;69203;48.964;9.118;2023-04-29T05:56:16;0.10;;;0.10;;
79708;SDS011;69203;48.964;9.118;2023-04-29T05:57:24;0.08;;;0.08;;
79708;SDS011;69203;48.964;9.118;2023-04-29T05:58:24;0.00;;;0.00;;
79708;SDS011;69203;48.964;9.118;2023-04-29T05:59:30;0.90;;;0.90;;
79708;SDS011;69203;48.964;9.118;2023-04-29T06:00:37;0.05;;;0.05;;
79708;SDS011;69203;48.964;9.118;2023-04-29T06:01:50;0.00;;;0.00;;
79708;SDS011;69203;48.964;9.118;2023-04-29T06:02:55;0.20;;;0.20;;
79708;SDS011;69203;48.964;9.118;2023-04-29T06:03:56;0.00;;;0.00;;
79708;SDS011;69203;48.964;9.118;2023-04-29T06:05:05;0.00;;;0.00;;
79708;SDS011;69203;48.964;9.118;2023-04-29T06:06:06;0.00;;;0.00;;
79708;SDS011;69203;48.964;9.118;2023-04-29T06:07:07;0.00;;;0.00;;
79708;SDS011;69203;48.964;9.118;2023-04-29T06:08:08;0.00;;;0.00;;
79708;SDS011;69203;48.964;9.118;2023-04-29T06:09:09;0.10;;;0.10;;
79708;SDS011;69203;48.964;9.118;2023-04-29T06:10:10;0.20;;;0.20;;
79708;SDS011;69203;48.964;9.118;2023-04-29T06:11:11;0.03;;;0.00;;
79708;SDS011;69203;48.964;9.118;2023-04-29T06:12:13;0.10;;;0.08;;
79708;SDS011;69203;48.964;9.118;2023-04-29T06:13:16;0.05;;;0.05;;
79708;SDS011;69203;48.964;9.118;2023-04-29T06:14:17;0.07;;;0.03;;
79708;SDS011;69203;48.964;9.118;2023-04-29T06:15:17;0.20;;;0.20;;
79708;SDS011;69203;48.964;9.118;2023-04-29T06:16:18;0.03;;;0.00;;
79708;SDS011;69203;48.964;9.118;2023-04-29T06:17:18;0.00;;;0.00;;
79708;SDS011;69203;48.964;9.118;2023-04-29T06:18:19;0.00;;;0.00;;
79708;SDS011;69203;48.964;9.118;2023-04-29T06:19:19;0.00;;;0.00;;
79708;SDS011;69203;48.964;9.118;2023-04-29T06:20:22;0.10;;;0.03;;
79708;SDS011;69203;48.964;9.118;2023-04-29T06:21:23;0.00;;;0.00;;
79708;SDS011;69203;48.964;9.118;2023-04-29T06:22:34;0.00;;;0.00;;
79708;SDS011;69203;48.964;9.118;2023-04-29T06:23:41;0.25;;;0.20;;
79708;SDS011;69203;48.964;9.118;2023-04-29T06:24:42;0.00;;;0.00;;
79708;SDS011;69203;48.964;9.118;2023-04-29T06:25:59;0.00;;;0.00;;
79708;SDS011;69203;48.964;9.118;2023-04-29T06:26:59;0.23;;;0.20;;
79708;SDS011;69203;48.964;9.118;2023-04-29T06:28:00;0.07;;;0.03;;
79708;SDS011;69203;48.964;9.118;2023-04-29T06:29:01;0.00;;;0.00;;
79708;SDS011;69203;48.964;9.118;2023-04-29T06:30:05;0.15;;;0.10;;
79708;SDS011;69203;48.964;9.118;2023-04-29T06:31:08;0.00;;;0.00;;
79708;SDS011;69203;48.964;9.118;2023-04-29T06:32:16;0.40;;;0.25;;
79708;SDS011;69203;48.964;9.118;2023-04-29T06:33:25;0.10;;;0.10;;
79708;SDS011;69203;48.964;9.118;2023-04-29T06:34:43;0.00;;;0.00;;
79708;SDS011;69203;48.964;9.118;2023-04-29T06:35:54;0.10;;;0.10;;
79708;SDS011;69203;48.964;9.118;2023-04-29T06:37:01;0.10;;;0.10;;
79708;SDS011;69203;48.964;9.118;2023-04-29T06:38:02;0.28;;;0.28;;
79708;SDS011;69203;48.964;9.118;2023-04-29T06:39:07;0.03;;;0.00;;